Time;durP1;ratioP1;P1;durP2;ratioP2;P2;SDS_P1;SDS_P2;PMS_P1;PMS_P2;Temp;Humidity;BMP_temperature;BMP_pressure;BME280_temperature;BME280_humidity;BME280_pressure;Samples;Min_cycle;Max_cycle;Signal;HPM_P1;HPM_P2
2021/09/04 00:02:16;;;;;;;;;;;;;;;;;;;;;
2021/09/04 00:05:51;;;;;;;13.60;7.80;;;;;;;13.60;67.32;100233.20;112705;1199;107239;-75
2021/09/04 00:09:24;;;;;;;13.80;7.90;;;;;;;13.52;67.36;100236.72;112512;1199;137833;-75
2021/09/04 00:12:48;;;;;;;12.50;8.40;;;;;;;13.48;67.49;100235.73;112756;1205;94850;-75
2021/09/04 00:16:03;;;;;;;14.50;8.70;;;;;;;13.45;67.57;100234.63;112591;1200;137354;-74
2021/09/04 00:19:33;;;;;;;14.40;9.20;;;;;;;13.42;67.87;100238.77;112826;1204;108365;-74
2021/09/04 00:22:56;;;;;;;;;;;;;;;;;;;;;
2021/09/04 00:26:29;;;;;;;12.90;8.40;;;;;;;13.33;67.98;100246.52;112802;1205;108540;-74
2021/09/04 00:29:59;;;;;;;;;;;;;;;13.27;67.96;100247.44;112648;1205;94813;-74
2021/09/04 00:33:57;;;;;;;;;;;;;;;;;;;;;
2021/09/04 00:37:17;;;;;;;15.60;8.80;;;;;;;13.11;68.41;100246.89;112616;1204;109569;-74
2021/09/04 00:40:47;;;;;;;16.50;9.90;;;;;;;13.09;68.46;100249.23;112598;1205;137909;-76
2021/09/04 00:44:36;;;;;;;17.30;9.70;;;;;;;13.04;68.56;100251.36;112640;1205;108608;-75
2021/09/04 00:48:34;;;;;;;16.70;10.30;;;;;;;12.99;68.72;100251.23;112825;1203;94804;-75
2021/09/04 00:52:57;;;;;;;13.90;8.90;;;;;;;12.94;68.80;100249.34;112669;1199;137463;-74
2021/09/04 00:56:21;;;;;;;;;;;;;;;;;;;;;
2021/09/04 01:04:21;;;;;;;13.60;7.80;;;;;;;12.81;68.89;100246.58;112092;1212;137460;-75
2021/09/04 01:08:00;;;;;;;16.50;7.80;;;;;;;12.76;68.94;100247.30;112080;1214;94885;-75
2021/09/04 01:11:17;;;;;;;10.70;7.30;;;;;;;12.71;69.03;100250.11;112010;1208;137051;-75
2021/09/04 01:14:50;;;;;;;11.90;7.10;;;;;;;12.64;69.10;100248.51;112130;1208;108393;-75
2021/09/04 01:18:04;;;;;;;11.50;7.20;;;;;;;12.60;69.31;100247.80;111986;1214;137518;-74
2021/09/04 01:21:32;;;;;;;13.10;7.90;;;;;;;12.60;69.38;100254.78;112092;1214;108929;-74
2021/09/04 01:28:56;;;;;;;;;;;;;;;12.53;69.39;100259.06;111899;1216;137113;-78
2021/09/04 01:32:47;;;;;;;15.40;8.10;;;;;;;12.47;69.58;100262.61;112004;1215;108097;-74
2021/09/04 01:35:58;;;;;;;;;;;;;;;;;;;;;
2021/09/04 01:39:16;;;;;;;15.80;8.60;;;;;;;12.37;69.91;100258.09;112047;1212;108991;-74
2021/09/04 01:42:56;;;;;;;14.50;8.50;;;;;;;12.37;69.97;100260.89;112129;1209;137155;-74
2021/09/04 01:46:34;;;;;;;15.10;8.20;;;;;;;12.32;69.93;100257.44;112301;1206;137362;-75
2021/09/04 01:50:15;;;;;;;;;;;;;;;;;;;;;
2021/09/04 01:53:48;;;;;;;;;;;;;;;;;;;;;
2021/09/04 01:57:25;;;;;;;13.00;7.90;;;;;;;12.18;70.10;100263.37;112195;1211;107698;-74
2021/09/04 02:01:07;;;;;;;;;;;;;;;;;;;;;
2021/09/04 02:04:48;;;;;;;;;;;;;;;;;;;;;
2021/09/04 02:08:12;;;;;;;11.30;7.20;;;;;;;12.04;70.20;100264.45;112239;1211;107141;-74
2021/09/04 02:11:57;;;;;;;14.70;7.70;;;;;;;11.99;70.23;100261.66;112031;1206;137855;-75
2021/09/04 02:16:05;;;;;;;12.10;7.30;;;;;;;11.93;70.29;100261.55;112116;1214;106339;-75
2021/09/04 02:19:50;;;;;;;;;;;;;;;;;;;;;
2021/09/04 02:23:51;;;;;;;;;;;;;;;;;;;;;
2021/09/04 02:27:42;;;;;;;11.70;6.70;;;;;;;11.77;70.50;100267.52;111984;1212;109474;-74
2021/09/04 02:31:23;;;;;;;;;;;;;;;;;;;;;
2021/09/04 02:34:59;;;;;;;;;;;;;;;;;;;;;
2021/09/04 02:39:00;;;;;;;10.20;5.80;;;;;;;11.66;70.72;100279.75;112178;1205;95002;-74
2021/09/04 02:42:48;;;;;;;12.40;6.10;;;;;;;11.66;70.76;100280.45;112110;1206;137685;-75
2021/09/04 02:46:42;;;;;;;9.10;5.80;;;;;;;11.60;70.65;100283.64;112243;1205;109551;-78
2021/09/04 02:50:38;;;;;;;;;;;;;;;;;;;;;
2021/09/04 02:53:58;;;;;;;;;;;;;;;;;;;;;
2021/09/04 02:57:50;;;;;;;;;;;;;;;;;;;;;
2021/09/04 03:01:32;;;;;;;;;;;;;;;;;;;;;
2021/09/04 03:05:03;;;;;;;;;;;;;;;;;;;;;
2021/09/04 03:08:06;;;;;;;11.60;6.30;;;;;;;11.36;70.84;100297.89;112035;1212;137915;-75
2021/09/04 03:11:33;;;;;;;;;;;;;;;;;;;;;
2021/09/04 03:15:27;;;;;;;11.00;6.30;;;;;;;11.32;70.95;100297.88;112167;1209;95117;-73
2021/09/04 03:19:27;;;;;;;;;;;;;;;;;;;;;
2021/09/04 03:22:56;;;;;;;;;;;;;;;;;;;;;
2021/09/04 03:26:25;;;;;;;13.30;6.00;;;;;;;11.20;70.92;100298.63;111933;1210;137022;-75
2021/09/04 03:30:17;;;;;;;8.80;5.50;;;;;;;11.15;71.04;100302.97;112098;1206;107803;-75
2021/09/04 03:34:14;;;;;;;;;;;;;;;;;;;;;
2021/09/04 03:37:49;;;;;;;;;;;;;;;;;;;;;
2021/09/04 03:41:18;;;;;;;;;;;;;;;;;;;;;
2021/09/04 03:44:53;;;;;;;10.30;5.40;;;;;;;11.02;71.14;100308.29;111986;1208;138682;-75
2021/09/04 03:48:08;;;;;;;;;;;;;;;;;;;;;
2021/09/04 03:51:42;;;;;;;9.70;5.70;;;;;;;10.96;71.08;100317.00;112100;1212;137052;-74
2021/09/04 03:55:23;;;;;;;;;;;;;;;;;;;;;
2021/09/04 03:59:13;;;;;;;9.30;4.90;;;;;;;10.93;71.08;100323.54;112385;1210;110836;-75
2021/09/04 04:02:45;;;;;;;;;;;;;;;;;;;;;
2021/09/04 04:06:23;;;;;;;11.90;8.00;;;;;;;10.90;71.02;100335.79;112067;1215;108622;-74
2021/09/04 04:09:44;;;;;;;10.10;5.80;;;;;;;10.88;71.09;100338.97;112063;1215;96235;-74
2021/09/04 04:13:22;;;;;;;7.40;4.50;;;;;;;10.87;70.97;100341.79;112120;1208;96243;-74
2021/09/04 04:16:49;;;;;;;;;;;;;;;;;;;;;
2021/09/04 04:20:42;;;;;;;9.60;5.10;;;;;;;10.95;71.19;100345.71;112072;1214;137371;-75
2021/09/04 04:24:01;;;;;;;10.60;4.70;;;;;;;12.02;71.07;100348.86;112133;1214;106985;-74
2021/09/04 04:27:39;;;;;;;7.10;4.30;;;;;;;13.45;69.51;100351.42;112017;1213;137679;-75
2021/09/04 04:31:13;;;;;;;6.60;4.40;;;;;;;14.20;67.42;100352.52;112171;1212;96370;-76
2021/09/04 04:35:01;;;;;;;;;;;;;;;;;;;;;
2021/09/04 04:38:15;;;;;;;6.40;4.40;;;;;;;16.51;63.78;100356.92;111995;1216;137413;-74
2021/09/04 04:41:23;;;;;;;6.10;4.60;;;;;;;17.67;61.52;100357.84;112023;1215;107439;-74
2021/09/04 04:44:15;;;;;;;6.20;4.20;;;;;;;18.78;59.37;100356.63;112152;1212;137333;-76
2021/09/04 04:47:33;;;;;;;6.70;4.20;;;;;;;19.87;57.00;100352.52;112222;1212;96174;-74
2021/09/04 04:50:40;;;;;;;5.50;3.70;;;;;;;20.89;54.78;100350.70;112115;1212;137193;-75
2021/09/04 04:53:32;;;;;;;5.20;3.60;;;;;;;22.02;52.89;100352.99;112347;1205;106867;-75
2021/09/04 04:56:32;;;;;;;5.60;3.30;;;;;;;23.07;50.68;100350.95;112082;1205;137327;-74
2021/09/04 04:59:21;;;;;;;6.50;3.80;;;;;;;24.18;48.31;100348.25;112179;1212;96198;-75
2021/09/04 05:02:09;;;;;;;5.30;3.80;;;;;;;24.89;46.97;100349.60;112092;1212;137557;-75
2021/09/04 05:05:07;;;;;;;5.00;2.90;;;;;;;25.83;44.98;100354.06;112214;1212;111071;-75
2021/09/04 05:07:56;;;;;;;3.40;2.90;;;;;;;26.64;43.38;100350.20;112222;1212;107193;-74
2021/09/04 05:10:45;;;;;;;4.00;2.90;;;;;;;27.51;41.92;100344.20;112130;1205;137561;-74
2021/09/04 05:13:32;;;;;;;3.80;2.40;;;;;;;28.29;40.19;100348.00;112198;1212;96401;-75
2021/09/04 05:16:20;;;;;;;4.50;3.60;;;;;;;29.04;38.97;100347.68;112271;1208;137198;-75
2021/09/04 05:19:23;;;;;;;6.80;5.50;;;;;;;29.93;37.49;100353.23;112370;1208;111208;-74
2021/09/04 05:22:15;;;;;;;6.10;3.00;;;;;;;30.66;36.20;100356.11;112211;1206;137296;-75
2021/09/04 05:25:04;;;;;;;3.50;2.40;;;;;;;31.18;35.24;100349.73;112678;1205;108980;-75
2021/09/04 05:27:53;;;;;;;3.50;2.30;;;;;;;31.95;34.06;100355.02;112556;1198;137179;-75
2021/09/04 05:30:41;;;;;;;2.90;2.00;;;;;;;32.76;32.78;100353.66;112669;1197;96139;-74
2021/09/04 05:33:28;;;;;;;6.20;4.40;;;;;;;33.17;31.71;100352.48;112554;1197;137061;-74
2021/09/04 05:36:16;;;;;;;2.80;1.90;;;;;;;33.63;30.66;100350.49;112866;1202;98458;-75
2021/09/04 05:39:04;;;;;;;4.30;2.10;;;;;;;33.95;29.72;100351.86;112628;1203;137144;-75
2021/09/04 05:41:51;;;;;;;2.60;2.00;;;;;;;34.39;29.01;100352.38;112837;1196;96144;-75
2021/09/04 05:44:39;;;;;;;3.50;1.70;;;;;;;34.88;28.28;100353.02;112539;1197;137141;-75
2021/09/04 05:47:26;;;;;;;2.80;1.40;;;;;;;35.19;27.42;100347.39;112665;1196;102198;-75
2021/09/04 05:50:14;;;;;;;3.40;1.80;;;;;;;35.42;26.73;100347.84;112917;1196;98577;-75
2021/09/04 05:53:04;;;;;;;2.20;1.60;;;;;;;35.58;26.22;100349.04;112658;1197;137346;-75
2021/09/04 05:55:52;;;;;;;2.30;1.40;;;;;;;36.10;25.73;100352.77;112857;1196;96198;-74
2021/09/04 05:58:40;;;;;;;3.80;1.70;;;;;;;36.70;25.19;100354.08;112711;1203;137400;-75
2021/09/04 06:01:28;;;;;;;2.90;1.60;;;;;;;37.34;24.74;100359.03;112809;1197;101380;-75
2021/09/04 06:04:16;;;;;;;3.00;1.60;;;;;;;37.96;23.94;100357.21;112675;1196;137114;-75
2021/09/04 06:07:05;;;;;;;2.50;1.70;;;;;;;38.48;23.05;100358.73;112763;1197;98968;-75
2021/09/04 06:09:53;;;;;;;4.20;1.60;;;;;;;38.86;22.51;100359.62;112583;1197;137284;-75
2021/09/04 06:12:40;;;;;;;4.80;3.10;;;;;;;39.15;22.34;100362.73;112808;1197;96279;-75
2021/09/04 06:15:28;;;;;;;2.10;1.60;;;;;;;37.91;21.62;100363.78;112641;1196;136912;-76
2021/09/04 06:18:16;;;;;;;2.90;1.80;;;;;;;35.62;22.12;100372.95;112856;1203;98516;-75
2021/09/04 06:21:05;;;;;;;3.00;1.60;;;;;;;33.43;22.79;100375.88;112441;1199;137088;-76
2021/09/04 06:23:52;;;;;;;2.60;1.80;;;;;;;31.07;23.69;100380.82;112665;1203;96241;-74
2021/09/04 06:26:43;;;;;;;2.30;1.70;;;;;;;29.15;25.28;100385.40;112624;1197;137274;-75
2021/09/04 06:29:31;;;;;;;5.30;1.80;;;;;;;27.58;26.87;100386.01;112817;1203;110859;-73
2021/09/04 06:32:19;;;;;;;4.60;2.10;;;;;;;26.35;28.23;100391.87;112874;1196;107148;-73
2021/09/04 06:35:08;;;;;;;5.40;3.80;;;;;;;25.23;29.60;100386.14;112755;1202;136961;-76
2021/09/04 06:38:04;;;;;;;2.00;1.60;;;;;;;24.49;30.86;100391.21;112670;1203;96144;-75
2021/09/04 06:40:55;;;;;;;2.70;1.70;;;;;;;23.76;31.55;100397.70;112706;1203;136883;-75
2021/09/04 06:43:46;;;;;;;3.10;1.70;;;;;;;23.11;32.66;100404.35;112651;1203;108812;-75
2021/09/04 06:46:37;;;;;;;2.00;1.40;;;;;;;22.69;33.38;100407.36;112557;1203;137343;-75
2021/09/04 06:49:27;;;;;;;4.50;1.40;;;;;;;22.43;34.35;100407.14;112662;1200;108515;-75
2021/09/04 06:52:23;;;;;;;3.00;1.40;;;;;;;22.36;34.78;100413.95;112671;1203;137119;-75
2021/09/04 06:55:30;;;;;;;;;;;;;;;;;;;;;
2021/09/04 06:58:23;;;;;;;3.40;2.30;;;;;;;26.77;32.37;100413.49;112636;1200;136982;-75
2021/09/04 07:01:13;;;;;;;2.30;1.40;;;;;;;29.36;29.90;100410.36;112852;1197;106624;-76
2021/09/04 07:04:14;;;;;;;2.50;1.50;;;;;;;31.71;28.09;100411.60;112721;1203;137163;-74
2021/09/04 07:07:04;;;;;;;6.90;4.90;;;;;;;33.83;26.53;100404.70;112796;1203;96213;-75
2021/09/04 07:09:51;;;;;;;6.00;2.60;;;;;;;35.15;24.81;100409.09;112737;1203;137089;-75
2021/09/04 07:12:39;;;;;;;4.30;2.70;;;;;;;36.22;23.57;100405.63;112693;1197;101323;-75
2021/09/04 07:15:26;;;;;;;2.60;1.70;;;;;;;37.28;22.55;100404.69;112645;1203;137408;-75
2021/09/04 07:18:14;;;;;;;3.90;2.00;;;;;;;38.26;21.62;100406.30;112804;1196;98840;-75
2021/09/04 07:21:04;;;;;;;1.80;1.20;;;;;;;39.06;20.86;100413.05;112686;1196;136122;-75
2021/09/04 07:23:52;;;;;;;2.40;1.20;;;;;;;39.89;20.10;100412.52;112775;1203;96630;-76
2021/09/04 07:26:43;;;;;;;1.90;1.20;;;;;;;40.26;19.39;100412.83;112848;1203;101087;-75
2021/09/04 07:29:31;;;;;;;1.60;1.00;;;;;;;40.66;18.92;100410.59;112625;1197;136892;-76
2021/09/04 07:32:19;;;;;;;3.60;0.90;;;;;;;40.84;18.16;100410.73;112811;1196;98967;-74
2021/09/04 07:35:16;;;;;;;2.50;0.80;;;;;;;40.82;17.89;100411.02;112533;1203;136784;-75
2021/09/04 07:38:04;;;;;;;2.30;1.70;;;;;;;41.01;17.87;100410.35;112782;1203;96345;-75
2021/09/04 07:40:51;;;;;;;11.40;10.20;;;;;;;41.16;17.05;100410.30;112760;1197;137325;-75
2021/09/04 07:43:40;;;;;;;1.20;1.10;;;;;;;40.56;16.65;100406.25;112860;1202;97614;-76
2021/09/04 07:46:28;;;;;;;2.30;1.20;;;;;;;40.31;17.08;100407.79;112671;1203;136805;-75
2021/09/04 07:49:15;;;;;;;1.60;1.20;;;;;;;40.51;17.33;100413.97;112837;1196;96144;-75
2021/09/04 07:52:04;;;;;;;1.60;1.10;;;;;;;40.85;17.03;100417.86;112684;1203;136857;-75
2021/09/04 07:54:52;;;;;;;2.90;1.00;;;;;;;41.15;16.57;100426.70;112858;1203;101271;-74
2021/09/04 07:57:39;;;;;;;1.50;1.00;;;;;;;40.46;16.29;100430.56;112833;1203;137115;-76
2021/09/04 08:00:27;;;;;;;1.50;1.00;;;;;;;38.84;16.52;100431.72;112884;1195;100425;-75
2021/09/04 08:03:15;;;;;;;1.90;1.10;;;;;;;37.15;17.37;100433.38;112694;1203;137323;-75
2021/09/04 08:06:06;;;;;;;3.20;1.50;;;;;;;36.01;18.43;100434.31;112762;1197;96146;-75
2021/09/04 08:09:01;;;;;;;2.90;1.30;;;;;;;36.11;18.86;100431.42;112863;1196;101013;-75
2021/09/04 08:11:52;;;;;;;3.90;1.20;;;;;;;36.83;18.57;100428.15;112787;1203;98534;-75
2021/09/04 08:14:41;;;;;;;1.80;1.00;;;;;;;37.20;17.89;100428.06;112757;1203;98908;-75
2021/09/04 08:17:29;;;;;;;2.10;1.30;;;;;;;36.82;18.09;100428.38;112701;1203;137819;-77
2021/09/04 08:20:16;;;;;;;2.70;1.60;;;;;;;36.70;18.54;100423.94;112770;1197;96189;-75
2021/09/04 08:23:07;;;;;;;2.30;1.30;;;;;;;36.56;18.68;100421.77;112763;1202;137115;-76
2021/09/04 08:25:54;;;;;;;1.50;0.90;;;;;;;36.36;18.68;100429.41;112832;1203;97735;-74
2021/09/04 08:28:42;;;;;;;1.20;0.90;;;;;;;36.13;18.20;100428.34;112718;1203;136942;-73
2021/09/04 08:31:31;;;;;;;1.70;1.10;;;;;;;35.51;18.16;100437.21;112772;1196;96215;-75
2021/09/04 08:34:18;;;;;;;2.20;1.20;;;;;;;34.88;18.15;100440.61;112543;1203;137420;-75
2021/09/04 08:37:07;;;;;;;1.10;0.70;;;;;;;34.21;18.22;100438.14;112702;1200;102193;-74
2021/09/04 08:40:06;;;;;;;0.90;0.80;;;;;;;33.68;18.39;100442.02;112739;1197;137501;-75
2021/09/04 08:42:55;;;;;;;0.90;0.80;;;;;;;33.48;18.42;100444.78;112795;1203;99871;-74
2021/09/04 08:46:02;;;;;;;2.10;0.80;;;;;;;33.47;18.45;100445.98;112650;1203;137153;-75
2021/09/04 08:49:18;;;;;;;3.70;0.80;;;;;;;33.51;18.23;100444.92;112793;1200;96199;-75
2021/09/04 08:52:07;;;;;;;1.40;0.90;;;;;;;33.38;18.37;100444.92;112803;1197;137208;-74
2021/09/04 08:54:55;;;;;;;1.30;0.70;;;;;;;33.38;18.46;100442.54;112769;1197;107015;-76
2021/09/04 08:57:43;;;;;;;1.20;0.60;;;;;;;33.92;18.14;100435.14;112693;1203;137279;-76
2021/09/04 09:00:37;;;;;;;0.80;0.50;;;;;;;34.24;17.77;100426.96;112776;1203;96146;-74
2021/09/04 09:03:29;;;;;;;1.40;0.70;;;;;;;34.53;17.39;100430.90;112786;1196;96149;-75
2021/09/04 09:06:46;;;;;;;1.20;0.70;;;;;;;34.92;17.33;100434.97;112817;1203;102325;-75
2021/09/04 09:09:35;;;;;;;1.70;0.70;;;;;;;35.35;17.30;100438.77;112539;1206;98635;-75
2021/09/04 09:12:32;;;;;;;0.90;0.70;;;;;;;35.64;16.97;100441.23;112384;1200;137673;-75
2021/09/04 09:15:25;;;;;;;0.80;0.60;;;;;;;35.89;16.50;100437.25;112474;1198;96337;-75
2021/09/04 09:18:16;;;;;;;0.60;0.50;;;;;;;36.02;16.20;100441.63;112385;1199;137168;-75
2021/09/04 09:21:04;;;;;;;0.70;0.70;;;;;;;36.04;16.59;100440.42;112510;1206;102084;-75
2021/09/04 09:24:13;;;;;;;1.10;0.50;;;;;;;36.31;16.54;100439.41;112402;1199;137350;-75
2021/09/04 09:27:02;;;;;;;1.50;0.70;;;;;;;36.55;16.30;100440.50;112536;1206;107474;-75
2021/09/04 09:29:51;;;;;;;1.70;0.70;;;;;;;36.81;16.25;100447.61;112418;1199;136468;-75
2021/09/04 09:32:52;;;;;;;1.90;1.10;;;;;;;36.99;16.26;100447.23;112574;1199;96272;-76
2021/09/04 09:35:46;;;;;;;1.70;1.00;;;;;;;37.17;16.40;100446.77;112416;1199;136778;-75
2021/09/04 09:38:35;;;;;;;1.50;0.90;;;;;;;37.20;15.79;100444.12;112501;1200;98655;-75
2021/09/04 09:41:25;;;;;;;1.40;0.90;;;;;;;37.04;15.95;100446.31;112553;1199;136852;-75
2021/09/04 09:44:24;;;;;;;1.20;0.80;;;;;;;36.87;16.00;100440.95;112538;1206;96195;-76
2021/09/04 09:47:16;;;;;;;1.40;0.70;;;;;;;36.82;16.06;100440.13;112622;1203;136824;-75
2021/09/04 09:50:06;;;;;;;1.30;0.90;;;;;;;36.60;16.01;100432.45;112783;1196;101198;-75
2021/09/04 09:53:00;;;;;;;2.40;1.20;;;;;;;36.06;16.08;100441.42;112632;1198;137000;-74
2021/09/04 09:55:52;;;;;;;1.20;0.80;;;;;;;35.76;16.50;100445.25;112762;1203;98869;-75
2021/09/04 09:58:41;;;;;;;1.20;0.60;;;;;;;35.99;16.66;100441.14;112676;1203;136953;-75
2021/09/04 10:01:36;;;;;;;2.50;0.80;;;;;;;36.05;16.45;100439.91;112860;1204;96254;-75
2021/09/04 10:04:31;;;;;;;0.70;0.70;;;;;;;35.96;16.72;100439.90;112619;1203;137432;-75
2021/09/04 10:07:19;;;;;;;0.80;0.70;;;;;;;35.94;16.46;100440.85;112775;1203;98508;-75
2021/09/04 10:10:07;;;;;;;1.30;0.90;;;;;;;35.74;16.41;100438.63;112659;1203;136970;-75
2021/09/04 10:12:56;;;;;;;3.30;0.80;;;;;;;35.28;16.37;100438.79;112785;1203;96310;-75
2021/09/04 10:16:03;;;;;;;0.80;0.70;;;;;;;34.93;16.36;100441.55;112794;1203;96209;-75
2021/09/04 10:18:52;;;;;;;0.80;0.70;;;;;;;34.58;16.60;100439.48;112948;1202;102131;-74
2021/09/04 10:21:40;;;;;;;1.20;0.80;;;;;;;34.48;16.80;100436.42;112664;1203;97654;-74
2021/09/04 10:24:47;;;;;;;3.10;2.00;;;;;;;34.57;16.97;100441.80;112651;1198;136792;-75
2021/09/04 10:27:40;;;;;;;1.00;0.90;;;;;;;34.70;16.95;100445.66;112753;1204;96254;-75
2021/09/04 10:30:35;;;;;;;1.40;0.90;;;;;;;34.50;16.87;100443.06;112679;1202;137013;-75
2021/09/04 10:33:26;;;;;;;0.80;0.60;;;;;;;34.15;16.70;100447.15;112766;1203;102296;-75
2021/09/04 10:36:15;;;;;;;0.90;0.70;;;;;;;33.48;16.89;100454.33;112639;1203;137273;-75
2021/09/04 10:39:03;;;;;;;1.70;0.90;;;;;;;33.16;16.99;100456.04;112795;1198;98937;-75
2021/09/04 10:41:52;;;;;;;0.80;0.70;;;;;;;33.04;17.21;100459.75;112687;1203;136973;-75
2021/09/04 10:44:49;;;;;;;2.60;0.80;;;;;;;32.78;17.52;100463.73;112742;1197;96185;-74
2021/09/04 10:47:47;;;;;;;1.20;0.80;;;;;;;32.72;17.99;100469.73;112679;1197;137096;-75
2021/09/04 10:50:35;;;;;;;1.60;1.30;;;;;;;32.57;18.00;100463.63;112909;1202;106365;-75
2021/09/04 10:53:47;;;;;;;1.10;1.00;;;;;;;31.98;17.76;100466.61;112657;1201;137622;-76
2021/09/04 10:56:39;;;;;;;2.60;0.90;;;;;;;30.99;18.47;100468.28;112810;1198;96384;-75
2021/09/04 11:00:04;;;;;;;1.20;1.10;;;;;;;30.63;18.74;100467.40;112742;1203;137617;-75
2021/09/04 11:03:05;;;;;;;0.80;0.70;;;;;;;30.15;19.38;100464.89;112794;1196;110749;-75
2021/09/04 11:06:05;;;;;;;1.60;0.90;;;;;;;29.87;19.50;100463.29;112721;1196;137074;-76
2021/09/04 11:08:56;;;;;;;1.40;0.90;;;;;;;29.48;19.14;100460.25;112832;1195;108696;-73
2021/09/04 11:11:50;;;;;;;2.80;1.20;;;;;;;28.87;19.61;100463.55;112759;1203;137179;-75
2021/09/04 11:14:58;;;;;;;2.10;1.20;;;;;;;28.60;20.14;100461.18;112818;1203;96197;-75
2021/09/04 11:17:49;;;;;;;2.60;1.00;;;;;;;28.56;20.11;100457.77;112467;1203;136993;-77
2021/09/04 11:20:50;;;;;;;2.60;0.90;;;;;;;28.34;20.38;100456.95;112758;1197;105862;-76
2021/09/04 11:23:51;;;;;;;0.70;0.70;;;;;;;28.04;20.86;100468.69;112663;1203;137194;-75
2021/09/04 11:26:56;;;;;;;1.10;0.80;;;;;;;28.21;21.16;100459.12;112748;1203;96296;-75
2021/09/04 11:29:57;;;;;;;0.80;0.70;;;;;;;28.38;21.09;100463.64;112603;1203;137083;-76
2021/09/04 11:32:46;;;;;;;1.50;0.90;;;;;;;28.36;21.28;100458.28;112812;1203;110733;-74
2021/09/04 11:35:45;;;;;;;1.60;1.10;;;;;;;28.43;20.98;100461.52;112692;1203;137429;-75
2021/09/04 11:38:43;;;;;;;3.40;1.00;;;;;;;28.31;20.80;100459.14;112852;1197;107594;-76
2021/09/04 11:41:43;;;;;;;;;;;;;;;28.16;21.16;100470.64;112628;1197;137220;-75
2021/09/04 11:44:31;;;;;;;2.90;1.00;;;;;;;27.96;21.63;100470.23;112810;1203;96184;-74
2021/09/04 11:47:44;;;;;;;1.70;1.30;;;;;;;27.96;21.83;100473.41;112679;1203;137090;-74
2021/09/04 11:51:19;;;;;;;1.60;1.10;;;;;;;27.84;21.55;100475.29;112671;1203;106133;-75
2021/09/04 11:54:07;;;;;;;1.50;1.10;;;;;;;27.73;21.81;100476.60;112652;1203;137378;-74
2021/09/04 11:56:59;;;;;;;1.40;1.00;;;;;;;27.36;21.56;100482.55;112719;1197;96291;-75
2021/09/04 12:00:08;;;;;;;1.50;0.90;;;;;;;26.94;22.05;100483.20;112636;1203;137146;-75
2021/09/04 12:03:34;;;;;;;;;;;;;;;;;;;;;
2021/09/04 12:07:08;;;;;;;2.70;1.30;;;;;;;26.55;22.48;100475.41;112703;1198;137152;-75
2021/09/04 12:11:18;;;;;;;2.60;1.30;;;;;;;26.32;22.72;100465.61;112760;1203;107580;-75
2021/09/04 12:14:34;;;;;;;1.10;0.90;;;;;;;26.33;22.75;100461.77;112299;1203;96371;-76
2021/09/04 12:18:08;;;;;;;2.30;1.10;;;;;;;26.25;22.41;100457.35;112210;1204;137082;-75
2021/09/04 12:21:20;;;;;;;1.90;1.00;;;;;;;26.00;23.14;100456.49;112165;1206;111429;-75
2021/09/04 12:24:33;;;;;;;4.50;3.20;;;;;;;25.96;23.52;100461.41;112071;1213;137184;-75
2021/09/04 12:27:38;;;;;;;3.60;2.40;;;;;;;26.00;24.26;100459.75;112168;1206;108589;-74
2021/09/04 12:31:22;;;;;;;2.30;1.40;;;;;;;26.15;24.04;100460.64;112027;1205;137231;-75
2021/09/04 12:34:36;;;;;;;2.80;1.70;;;;;;;25.98;23.85;100464.25;112276;1203;96183;-75
2021/09/04 12:37:35;;;;;;;1.60;1.10;;;;;;;25.90;23.94;100467.27;112229;1203;136914;-76
2021/09/04 12:40:38;;;;;;;1.70;1.10;;;;;;;25.92;23.97;100463.56;112290;1211;107780;-75
2021/09/04 12:43:55;;;;;;;4.90;3.00;;;;;;;25.84;23.89;100467.08;112148;1212;137030;-74
2021/09/04 12:47:04;;;;;;;1.70;1.00;;;;;;;25.63;23.48;100469.34;112275;1203;96187;-75
2021/09/04 12:49:53;;;;;;;1.90;0.90;;;;;;;25.57;23.98;100464.59;112224;1207;136894;-76
2021/09/04 12:53:04;;;;;;;2.00;1.10;;;;;;;25.55;24.35;100473.69;112567;1201;110667;-75
2021/09/04 12:56:00;;;;;;;1.70;1.20;;;;;;;25.50;24.35;100468.04;112345;1207;137445;-75
2021/09/04 12:59:14;;;;;;;1.10;0.80;;;;;;;25.53;24.16;100463.91;112730;1204;107354;-75
2021/09/04 13:02:24;;;;;;;1.70;1.00;;;;;;;25.45;24.03;100465.38;112710;1203;137326;-75
2021/09/04 13:05:50;;;;;;;1.60;0.90;;;;;;;25.38;24.25;100466.37;112882;1203;97382;-74
2021/09/04 13:09:03;;;;;;;2.30;1.10;;;;;;;25.19;24.54;100466.95;112811;1203;110923;-75
2021/09/04 13:12:13;;;;;;;1.30;0.90;;;;;;;24.90;24.76;100466.91;112863;1203;106228;-74
2021/09/04 13:15:26;;;;;;;;;;;;;;;;;;;;;
2021/09/04 13:18:58;;;;;;;4.50;1.60;;;;;;;24.38;25.58;100469.84;112899;1203;96241;-75
2021/09/04 13:22:27;;;;;;;1.90;1.20;;;;;;;24.34;25.99;100464.70;112890;1203;96867;-74
2021/09/04 13:25:31;;;;;;;;;;;;;;;24.36;26.31;100464.83;112779;1201;137186;-74
2021/09/04 13:28:29;;;;;;;1.90;1.10;;;;;;;24.28;26.31;100461.83;112825;1204;109623;-75
2021/09/04 13:31:51;;;;;;;3.40;1.30;;;;;;;24.14;26.00;100456.60;112634;1203;137559;-74
2021/09/04 13:34:42;;;;;;;1.60;1.30;;;;;;;23.89;26.10;100465.30;112673;1199;96413;-77
2021/09/04 13:37:41;;;;;;;2.20;1.30;;;;;;;23.74;26.19;100469.80;112699;1197;137846;-75
2021/09/04 13:40:37;;;;;;;5.20;3.70;;;;;;;23.53;26.42;100470.59;112869;1203;109725;-75
2021/09/04 13:43:31;;;;;;;15.60;11.30;;;;;;;23.32;26.56;100476.41;112732;1197;136496;-75
2021/09/04 13:46:27;;;;;;;6.00;3.40;;;;;;;23.13;26.67;100475.14;112790;1204;108624;-75
2021/09/04 13:49:22;;;;;;;6.40;2.60;;;;;;;22.92;27.21;100479.63;112641;1197;137438;-75
2021/09/04 13:52:38;;;;;;;3.50;1.80;;;;;;;22.81;27.60;100478.90;112837;1197;96165;-75
2021/09/04 13:56:22;;;;;;;4.40;2.30;;;;;;;22.69;27.78;100485.21;112776;1203;137087;-74
2021/09/04 13:59:21;;;;;;;4.20;1.80;;;;;;;22.65;28.14;100488.92;112721;1197;106336;-74
2021/09/04 14:02:40;;;;;;;2.60;1.60;;;;;;;22.62;28.36;100488.55;112649;1204;137321;-74
2021/09/04 14:05:29;;;;;;;5.50;2.20;;;;;;;22.53;28.38;100491.92;112778;1199;96253;-75
2021/09/04 14:09:07;;;;;;;1.60;1.30;;;;;;;22.41;28.13;100487.02;112722;1204;136987;-76
2021/09/04 14:13:17;;;;;;;2.40;1.30;;;;;;;22.14;28.24;100491.98;112287;1206;110796;-76
2021/09/04 14:21:34;;;;;;;1.50;1.30;;;;;;;21.83;28.97;100491.27;111838;1217;137225;-75
2021/09/04 14:29:36;;;;;;;;;;;;;;;;;;;;;
2021/09/04 14:34:30;;;;;;;1.90;1.30;;;;;;;21.44;29.29;100486.09;111519;1215;137180;-75
2021/09/04 14:46:31;;;;;;;;;;;;;;;;;;;;;
2021/09/04 14:50:41;;;;;;;2.50;1.20;;;;;;;20.65;30.46;100483.23;112226;1205;93948;-76
2021/09/04 14:54:50;;;;;;;4.30;3.60;;;;;;;20.59;31.22;100484.19;111960;1210;93892;-75
2021/09/04 15:02:53;;;;;;;3.20;1.40;;;;;;;20.62;31.15;100482.59;111597;1218;635815;-76
2021/09/04 15:07:00;;;;;;;3.00;2.10;;;;;;;20.51;30.94;100486.48;112281;1211;93846;-76
2021/09/04 15:11:06;;;;;;;;;;;;;;;;;;;;;
2021/09/04 15:15:22;;;;;;;3.00;1.20;;;;;;;20.28;31.46;100481.89;111392;1219;107055;-75
2021/09/04 15:19:31;;;;;;;1.30;1.20;;;;;;;20.19;31.51;100483.54;111022;1219;106230;-75
2021/09/04 15:23:03;;;;;;;2.10;1.20;;;;;;;20.18;32.19;100492.11;110747;1223;137701;-75
2021/09/04 15:27:29;;;;;;;;;;;;;;;;;;;;;
2021/09/04 15:36:16;;;;;;;3.50;2.20;;;;;;;20.37;32.35;100493.45;109601;1229;136950;-75
2021/09/04 15:40:21;;;;;;;3.40;1.50;;;;;;;20.25;32.49;100490.20;109372;1235;106220;-75
2021/09/04 15:44:17;;;;;;;11.70;8.20;;;;;;;20.20;32.67;100484.01;111564;1219;637015;-75
2021/09/04 15:48:17;;;;;;;;;;;;;;;;;;;;;
2021/09/04 15:52:04;;;;;;;;;;;;;;;;;;;;;
2021/09/04 15:56:14;;;;;;;2.60;1.30;;;;;;;19.69;33.59;100489.91;112285;1209;136141;-75
2021/09/04 16:04:32;;;;;;;2.70;1.80;;;;;;;19.37;33.88;100499.98;111977;1218;108859;-75
2021/09/04 16:08:40;;;;;;;2.90;1.60;;;;;;;19.15;34.06;100502.06;111648;1213;94182;-74
2021/09/04 16:12:42;;;;;;;;;;;;;;;;;;;;;
2021/09/04 16:25:26;;;;;;;1.90;1.30;;;;;;;18.34;35.91;100493.18;109523;1236;137257;-74
2021/09/04 16:32:59;;;;;;;3.60;1.60;;;;;;;18.26;36.63;100493.48;110973;1224;659016;-74
2021/09/04 16:37:12;;;;;;;3.20;2.10;;;;;;;18.14;36.77;100496.67;111525;1214;136752;-76